createdAt,value
2023-05-06T00:01:53.727Z,3.40
2023-05-06T00:04:20.499Z,2.60
2023-05-06T00:06:47.279Z,2.70
2023-05-06T00:09:14.001Z,2.20
2023-05-06T00:11:40.683Z,2.00
2023-05-06T00:14:07.381Z,1.60
2023-05-06T00:16:34.111Z,2.40
2023-05-06T00:19:00.884Z,2.40
2023-05-06T00:21:27.664Z,1.70
2023-05-06T00:23:54.386Z,1.70
2023-05-06T00:26:21.258Z,2.20
2023-05-06T00:28:47.982Z,2.80
2023-05-06T00:31:14.676Z,2.40
2023-05-06T00:33:41.500Z,1.70
2023-05-06T00:36:08.606Z,1.50
2023-05-06T00:38:35.713Z,2.00
2023-05-06T00:41:04.181Z,4.00
2023-05-06T00:43:30.950Z,2.40
2023-05-06T00:45:57.810Z,2.20
2023-05-06T00:48:24.724Z,1.50
2023-05-06T00:50:51.698Z,2.80
2023-05-06T00:53:19.615Z,2.00
2023-05-06T00:55:46.339Z,2.10
2023-05-06T00:58:13.093Z,2.10
2023-05-06T01:00:40.239Z,2.60
2023-05-06T01:03:07.006Z,2.00
2023-05-06T01:05:39.718Z,1.60
2023-05-06T01:08:12.859Z,2.40
2023-05-06T01:10:46.769Z,2.20
2023-05-06T01:13:32.972Z,2.00
2023-05-06T01:15:59.909Z,1.40
2023-05-06T01:18:27.145Z,2.80
2023-05-06T01:20:54.637Z,1.60
2023-05-06T01:23:21.589Z,3.10
2023-05-06T01:25:48.301Z,1.70
2023-05-06T01:28:16.669Z,2.30
2023-05-06T01:30:49.576Z,2.40
2023-05-06T01:33:22.658Z,1.80
2023-05-06T01:36:04.607Z,1.70
2023-05-06T01:38:36.704Z,1.50
2023-05-06T01:41:03.568Z,2.60
2023-05-06T01:43:35.100Z,1.30
2023-05-06T01:46:02.528Z,2.30
2023-05-06T01:48:31.439Z,1.60
2023-05-06T01:50:58.225Z,2.60
2023-05-06T01:53:26.129Z,2.40
2023-05-06T01:55:52.897Z,2.40
2023-05-06T01:58:19.603Z,3.10
2023-05-06T02:00:46.308Z,3.00
2023-05-06T02:03:13.643Z,1.60
2023-05-06T02:05:40.775Z,1.40
2023-05-06T02:08:07.630Z,1.40
2023-05-06T02:10:34.470Z,1.40
2023-05-06T02:13:04.594Z,1.50
2023-05-06T02:15:31.384Z,1.50
2023-05-06T02:17:59.983Z,3.10
2023-05-06T02:20:26.873Z,1.40
2023-05-06T02:22:53.678Z,3.40
2023-05-06T02:25:20.853Z,2.60
2023-05-06T02:27:47.626Z,4.00
2023-05-06T02:30:14.868Z,1.60
2023-05-06T02:32:41.695Z,1.70
2023-05-06T02:35:09.147Z,2.90
2023-05-06T02:37:36.122Z,1.60
2023-05-06T02:40:02.843Z,1.50
2023-05-06T02:42:30.975Z,1.50
2023-05-06T02:44:57.706Z,2.40
2023-05-06T02:47:24.548Z,1.80
2023-05-06T02:49:51.312Z,2.10
2023-05-06T02:52:18.750Z,1.50
2023-05-06T02:54:45.487Z,1.90
2023-05-06T02:57:12.215Z,2.20
2023-05-06T02:59:38.913Z,1.90
2023-05-06T03:02:05.887Z,1.70
2023-05-06T03:04:32.814Z,2.20
2023-05-06T03:06:59.612Z,2.60
2023-05-06T03:09:26.377Z,1.40
2023-05-06T03:11:54.007Z,1.70
2023-05-06T03:14:21.358Z,2.20
2023-05-06T03:16:49.136Z,1.40
2023-05-06T03:19:16.186Z,2.60
2023-05-06T03:21:43.982Z,2.40
2023-05-06T03:24:11.518Z,1.40
2023-05-06T03:26:38.581Z,3.30
2023-05-06T03:29:05.821Z,1.90
2023-05-06T03:31:32.681Z,1.90
2023-05-06T03:33:59.718Z,1.80
2023-05-06T03:36:28.042Z,1.40
2023-05-06T03:38:55.189Z,1.60
2023-05-06T03:41:22.395Z,1.60
2023-05-06T03:43:49.321Z,1.80
2023-05-06T03:46:17.278Z,2.20
2023-05-06T03:48:44.414Z,2.70
2023-05-06T03:51:13.186Z,1.30
2023-05-06T03:53:40.300Z,1.50
2023-05-06T03:56:07.446Z,1.90
2023-05-06T03:58:35.515Z,1.70
2023-05-06T04:01:02.642Z,1.60
2023-05-06T04:03:29.455Z,1.30
2023-05-06T04:05:56.254Z,2.00
2023-05-06T04:08:25.574Z,1.50
2023-05-06T04:10:52.988Z,3.00
2023-05-06T04:13:26.468Z,2.80
2023-05-06T04:15:53.492Z,1.70
2023-05-06T04:18:23.050Z,1.30
2023-05-06T04:20:56.563Z,1.10
2023-05-06T04:23:24.113Z,1.30
2023-05-06T04:25:51.014Z,1.30
2023-05-06T04:28:18.958Z,2.20
2023-05-06T04:30:48.803Z,1.20
2023-05-06T04:33:15.826Z,1.30
2023-05-06T04:35:53.839Z,2.80
2023-05-06T04:38:21.810Z,1.70
2023-05-06T04:40:50.109Z,1.10
2023-05-06T04:43:17.207Z,2.10
2023-05-06T04:45:49.829Z,2.30
2023-05-06T04:48:19.887Z,2.70
2023-05-06T04:50:46.969Z,1.50
2023-05-06T04:53:14.070Z,3.30
2023-05-06T04:55:41.550Z,1.30
2023-05-06T04:58:08.986Z,3.80
2023-05-06T05:00:36.056Z,1.50
2023-05-06T05:03:03.839Z,1.90
2023-05-06T05:05:33.242Z,1.70
2023-05-06T05:08:02.778Z,1.20
2023-05-06T05:10:29.796Z,2.40
2023-05-06T05:12:56.573Z,2.40
2023-05-06T05:15:23.994Z,1.30
2023-05-06T05:17:51.348Z,3.20
2023-05-06T05:20:18.949Z,6.80
2023-05-06T05:22:45.674Z,2.80
2023-05-06T05:25:13.082Z,14.50
2023-05-06T05:27:42.239Z,2.10
2023-05-06T05:30:09.569Z,1.40
2023-05-06T05:32:38.734Z,1.50
2023-05-06T05:35:06.093Z,1.60
2023-05-06T05:37:33.546Z,2.30
2023-05-06T05:40:00.867Z,1.60
2023-05-06T05:42:28.126Z,1.90
2023-05-06T05:44:56.132Z,1.30
2023-05-06T05:47:23.845Z,4.00
2023-05-06T05:49:50.827Z,1.30
2023-05-06T05:52:18.367Z,1.00
2023-05-06T05:54:45.154Z,1.40
2023-05-06T05:57:11.959Z,6.40
2023-05-06T05:59:39.229Z,2.60
2023-05-06T06:02:06.526Z,1.70
2023-05-06T06:04:33.397Z,1.70
2023-05-06T06:07:01.959Z,2.90
2023-05-06T06:09:29.077Z,3.70
2023-05-06T06:11:56.060Z,1.20
2023-05-06T06:14:24.296Z,5.70
2023-05-06T06:16:51.094Z,3.30
2023-05-06T06:19:18.181Z,3.40
2023-05-06T06:21:45.376Z,1.20
2023-05-06T06:24:12.901Z,3.20
2023-05-06T06:26:39.689Z,4.10
2023-05-06T06:29:06.534Z,2.60
2023-05-06T06:31:34.961Z,1.60
2023-05-06T06:34:05.306Z,1.60
2023-05-06T06:36:32.784Z,2.10
2023-05-06T06:38:59.566Z,4.50
2023-05-06T06:41:27.351Z,4.70
2023-05-06T06:43:54.147Z,1.90
2023-05-06T06:46:25.355Z,4.40
2023-05-06T06:48:52.126Z,2.10
2023-05-06T06:51:18.848Z,11.80
2023-05-06T06:53:48.322Z,2.20
2023-05-06T06:56:16.017Z,1.80
2023-05-06T06:58:42.754Z,1.70
2023-05-06T07:01:10.125Z,1.70
2023-05-06T07:03:37.045Z,1.40
2023-05-06T07:06:04.040Z,1.90
2023-05-06T07:08:30.777Z,2.20
2023-05-06T07:10:57.568Z,4.60
2023-05-06T07:13:24.441Z,3.10
2023-05-06T07:15:51.247Z,2.70
2023-05-06T07:18:18.057Z,0.90
2023-05-06T07:20:44.931Z,1.20
2023-05-06T07:23:11.693Z,7.50
2023-05-06T07:25:38.421Z,1.50
2023-05-06T07:28:05.788Z,5.30
2023-05-06T07:30:32.666Z,2.50
2023-05-06T07:32:59.578Z,5.20
2023-05-06T07:35:26.383Z,2.00
2023-05-06T07:37:53.424Z,1.60
2023-05-06T07:40:20.101Z,1.40
2023-05-06T07:42:46.860Z,2.10
2023-05-06T07:45:15.619Z,1.60
2023-05-06T07:47:42.531Z,2.60
2023-05-06T07:50:10.558Z,3.10
2023-05-06T07:52:37.501Z,1.20
2023-05-06T07:55:05.116Z,5.00
2023-05-06T07:57:31.962Z,2.00
2023-05-06T07:59:58.766Z,7.30
2023-05-06T08:02:25.851Z,1.60
2023-05-06T08:04:53.204Z,3.90
2023-05-06T08:07:20.045Z,3.90
2023-05-06T08:09:46.778Z,2.90
2023-05-06T08:12:13.572Z,2.00
2023-05-06T08:14:40.866Z,1.40
2023-05-06T08:17:07.800Z,3.40
2023-05-06T08:19:34.621Z,5.40
2023-05-06T08:22:01.342Z,1.70
2023-05-06T08:24:28.381Z,1.70
2023-05-06T08:26:55.196Z,4.30
2023-05-06T08:29:21.967Z,1.80
2023-05-06T08:31:48.779Z,1.00
2023-05-06T08:34:18.516Z,1.70
2023-05-06T08:36:45.901Z,2.70
2023-05-06T08:39:14.520Z,1.20
2023-05-06T08:41:41.455Z,2.40
2023-05-06T08:44:08.349Z,1.30
2023-05-06T08:46:35.195Z,0.90
2023-05-06T08:49:02.513Z,1.30
2023-05-06T08:51:30.262Z,3.00
2023-05-06T08:53:57.023Z,2.50
2023-05-06T08:56:24.514Z,3.00
2023-05-06T08:58:51.614Z,2.30
2023-05-06T09:01:18.776Z,1.50
2023-05-06T09:03:46.153Z,10.10
2023-05-06T09:06:13.520Z,4.50
2023-05-06T09:08:41.039Z,1.50
2023-05-06T09:11:24.511Z,2.70
2023-05-06T09:13:51.470Z,1.00
2023-05-06T09:16:29.294Z,1.90
2023-05-06T09:18:56.666Z,1.40
2023-05-06T09:21:29.791Z,1.00
2023-05-06T09:23:56.475Z,3.40
2023-05-06T09:26:23.418Z,0.90
2023-05-06T09:28:51.127Z,1.70
2023-05-06T09:31:17.960Z,3.30
2023-05-06T09:33:44.690Z,1.00
2023-05-06T09:36:13.464Z,1.50
2023-05-06T09:38:43.226Z,2.20
2023-05-06T09:41:11.195Z,0.80
2023-05-06T09:43:42.059Z,1.20
2023-05-06T09:46:09.079Z,1.20
2023-05-06T09:48:36.005Z,4.50
2023-05-06T09:51:03.426Z,2.40
2023-05-06T09:53:30.503Z,3.80
2023-05-06T09:55:58.478Z,1.80
2023-05-06T09:58:25.304Z,1.90
2023-05-06T10:00:52.158Z,1.30
2023-05-06T10:03:19.047Z,2.30
2023-05-06T10:05:46.171Z,1.60
2023-05-06T10:08:15.177Z,6.00
2023-05-06T10:10:42.118Z,1.90
2023-05-06T10:13:08.925Z,2.30
2023-05-06T10:15:35.718Z,2.40
2023-05-06T10:18:02.531Z,2.70
2023-05-06T10:20:29.309Z,2.00
2023-05-06T10:23:45.010Z,2.80
2023-05-06T10:26:12.086Z,6.60
2023-05-06T10:28:42.623Z,1.90
2023-05-06T10:31:12.992Z,3.30
2023-05-06T10:33:45.714Z,2.20
2023-05-06T10:36:20.575Z,4.60
2023-05-06T10:38:54.934Z,2.50
2023-05-06T10:41:22.396Z,1.40
2023-05-06T10:43:56.883Z,3.00
2023-05-06T10:46:24.878Z,4.60
2023-05-06T10:49:04.433Z,1.30
2023-05-06T10:51:40.605Z,1.90
2023-05-06T10:54:19.607Z,1.40
2023-05-06T10:56:49.698Z,1.60
2023-05-06T10:59:21.343Z,1.60
2023-05-06T11:01:55.273Z,2.10
2023-05-06T11:04:22.013Z,2.30
2023-05-06T11:06:49.688Z,1.60
2023-05-06T11:09:23.544Z,3.70
2023-05-06T11:12:03.933Z,1.40
2023-05-06T11:14:37.687Z,2.80
2023-05-06T11:17:06.203Z,1.60
2023-05-06T11:19:34.061Z,7.80
2023-05-06T11:22:01.972Z,1.20
2023-05-06T11:24:29.856Z,1.90
2023-05-06T11:26:58.284Z,9.30
2023-05-06T11:29:25.168Z,2.90
2023-05-06T11:31:54.047Z,1.70
2023-05-06T11:34:31.428Z,1.90
2023-05-06T11:37:09.657Z,1.80
2023-05-06T11:39:40.921Z,1.50
2023-05-06T11:42:09.108Z,3.50
2023-05-06T11:44:37.263Z,1.50
2023-05-06T11:47:05.964Z,3.40
2023-05-06T11:49:43.145Z,3.70
2023-05-06T11:52:10.774Z,2.90
2023-05-06T11:54:41.888Z,1.70
2023-05-06T11:57:09.055Z,1.60
2023-05-06T11:59:40.134Z,2.90
2023-05-06T12:02:07.570Z,3.70
2023-05-06T12:04:38.217Z,1.90
2023-05-06T12:07:05.793Z,1.30
2023-05-06T12:09:32.601Z,1.50
2023-05-06T12:11:59.317Z,2.20
2023-05-06T12:14:26.353Z,1.40
2023-05-06T12:16:55.982Z,2.60
2023-05-06T12:19:24.212Z,2.70
2023-05-06T12:21:54.182Z,2.20
2023-05-06T12:24:28.991Z,2.60
2023-05-06T12:26:56.194Z,1.70
2023-05-06T12:29:22.947Z,2.00
2023-05-06T12:31:49.874Z,3.10
2023-05-06T12:34:18.208Z,4.40
2023-05-06T12:36:46.111Z,3.90
2023-05-06T12:39:14.136Z,1.20
2023-05-06T12:41:53.877Z,2.70
2023-05-06T12:44:33.702Z,3.30
2023-05-06T12:47:01.687Z,2.20
2023-05-06T12:49:34.709Z,2.10
2023-05-06T12:52:09.183Z,1.80
2023-05-06T12:54:36.730Z,1.80
2023-05-06T12:57:04.422Z,2.90
2023-05-06T12:59:31.669Z,1.60
2023-05-06T13:01:59.153Z,2.50
2023-05-06T13:04:26.075Z,2.20
2023-05-06T13:06:52.855Z,1.40
2023-05-06T13:09:19.620Z,1.70
2023-05-06T13:11:46.418Z,4.70
2023-05-06T13:14:13.689Z,1.30
2023-05-06T13:16:40.595Z,1.30
2023-05-06T13:19:12.787Z,3.10
2023-05-06T13:21:45.925Z,2.90
2023-05-06T13:24:12.692Z,6.50
2023-05-06T13:26:39.504Z,4.20
2023-05-06T13:29:06.402Z,2.40
2023-05-06T13:31:34.914Z,1.70
2023-05-06T13:34:01.791Z,2.30
2023-05-06T13:36:28.621Z,1.70
2023-05-06T13:38:55.903Z,0.80
2023-05-06T13:41:22.741Z,2.10
2023-05-06T13:43:49.526Z,2.70
2023-05-06T13:46:16.478Z,5.30
2023-05-06T13:48:44.223Z,1.30
2023-05-06T13:51:11.018Z,2.20
2023-05-06T13:53:39.421Z,4.40
2023-05-06T13:56:06.454Z,1.20
2023-05-06T13:58:33.619Z,3.30
2023-05-06T14:01:00.738Z,2.10
2023-05-06T14:03:27.514Z,3.40
2023-05-06T14:05:54.230Z,5.70
2023-05-06T14:08:20.912Z,1.80
2023-05-06T14:10:47.583Z,4.00
2023-05-06T14:13:14.522Z,2.50
2023-05-06T14:15:41.249Z,1.30
2023-05-06T14:18:08.023Z,1.70
2023-05-06T14:20:34.862Z,1.80
2023-05-06T14:23:04.277Z,2.00
2023-05-06T14:25:31.053Z,4.60
2023-05-06T14:27:57.958Z,3.70
2023-05-06T14:30:24.757Z,4.70
2023-05-06T14:32:51.593Z,2.10
2023-05-06T14:35:18.430Z,2.30
2023-05-06T14:37:45.287Z,4.20
2023-05-06T14:40:12.266Z,1.50
2023-05-06T14:42:39.031Z,3.80
2023-05-06T14:45:06.876Z,2.50
2023-05-06T14:47:33.666Z,3.00
2023-05-06T14:50:00.894Z,3.50
2023-05-06T14:52:30.456Z,6.30
2023-05-06T14:54:57.355Z,4.00
2023-05-06T14:57:24.286Z,6.00
2023-05-06T14:59:51.853Z,2.30
2023-05-06T15:02:18.726Z,3.70
2023-05-06T15:04:46.341Z,2.80
2023-05-06T15:07:13.110Z,2.70
2023-05-06T15:09:40.343Z,3.20
2023-05-06T15:12:07.342Z,3.10
2023-05-06T15:14:34.130Z,2.80
2023-05-06T15:17:01.152Z,2.60
2023-05-06T15:19:28.123Z,1.70
2023-05-06T15:21:54.850Z,3.50
2023-05-06T15:24:21.632Z,9.30
2023-05-06T15:26:48.561Z,18.20
2023-05-06T15:29:17.654Z,15.30
2023-05-06T15:31:44.588Z,17.70
2023-05-06T15:34:11.741Z,20.10
2023-05-06T15:36:41.710Z,16.90
2023-05-06T15:39:08.538Z,32.60
2023-05-06T15:41:35.995Z,38.30
2023-05-06T15:44:03.572Z,24.40
2023-05-06T15:46:31.014Z,13.10
2023-05-06T15:49:12.773Z,7.60
2023-05-06T15:51:44.446Z,4.40
2023-05-06T15:54:11.180Z,5.40
2023-05-06T15:56:41.040Z,9.00
2023-05-06T15:59:09.088Z,4.70
2023-05-06T16:02:16.545Z,3.20
2023-05-06T16:04:23.693Z,5.20
2023-05-06T16:06:50.988Z,2.50
2023-05-06T16:09:17.960Z,3.70
2023-05-06T16:11:44.695Z,3.80
2023-05-06T16:14:11.382Z,5.00
2023-05-06T16:16:38.733Z,5.00
2023-05-06T16:19:05.534Z,4.70
2023-05-06T16:21:32.328Z,5.70
2023-05-06T16:23:59.104Z,4.70
2023-05-06T16:26:25.929Z,6.20
2023-05-06T16:28:53.788Z,5.90
2023-05-06T16:31:20.824Z,2.70
2023-05-06T16:33:47.620Z,3.10
2023-05-06T16:36:14.468Z,5.20
2023-05-06T16:38:41.252Z,3.00
2023-05-06T16:41:08.169Z,1.40
2023-05-06T16:43:34.931Z,3.30
2023-05-06T16:46:01.709Z,6.10
2023-05-06T16:48:28.845Z,1.70
2023-05-06T16:50:55.691Z,3.30
2023-05-06T16:53:22.511Z,2.40
2023-05-06T16:55:49.475Z,2.20
2023-05-06T16:58:16.223Z,1.50
2023-05-06T17:00:43.082Z,3.20
2023-05-06T17:03:10.420Z,2.90
2023-05-06T17:05:37.247Z,2.50
2023-05-06T17:08:04.117Z,2.90
2023-05-06T17:10:30.960Z,3.60
2023-05-06T17:12:58.133Z,6.30
2023-05-06T17:15:25.157Z,1.80
2023-05-06T17:17:52.059Z,2.80
2023-05-06T17:20:22.760Z,5.70
2023-05-06T17:22:49.691Z,4.70
2023-05-06T17:25:16.703Z,6.40
2023-05-06T17:27:44.208Z,7.20
2023-05-06T17:30:11.991Z,3.00
2023-05-06T17:32:39.528Z,1.70
2023-05-06T17:35:06.694Z,2.60
2023-05-06T17:37:34.211Z,1.60
2023-05-06T17:40:02.921Z,2.90
2023-05-06T17:42:30.758Z,2.60
2023-05-06T17:44:57.664Z,4.20
2023-05-06T17:47:24.686Z,1.70
2023-05-06T17:49:54.587Z,1.50
2023-05-06T17:52:21.354Z,2.30
2023-05-06T17:54:56.928Z,3.10
2023-05-06T17:57:34.036Z,2.50
2023-05-06T18:00:00.745Z,2.80
2023-05-06T18:02:28.736Z,4.90
2023-05-06T18:04:55.914Z,2.80
2023-05-06T18:07:22.695Z,8.40
2023-05-06T18:09:52.099Z,4.30
2023-05-06T18:12:19.447Z,3.60
2023-05-06T18:14:46.516Z,3.10
2023-05-06T18:17:13.263Z,1.10
2023-05-06T18:19:40.093Z,3.50
2023-05-06T18:22:06.882Z,1.80
2023-05-06T18:24:34.850Z,2.10
2023-05-06T18:27:02.393Z,1.40
2023-05-06T18:29:30.346Z,1.50
2023-05-06T18:31:57.430Z,1.90
2023-05-06T18:34:24.278Z,3.10
2023-05-06T18:36:51.179Z,3.20
2023-05-06T18:39:17.984Z,3.00
2023-05-06T18:41:45.061Z,1.60
2023-05-06T18:44:11.952Z,2.40
2023-05-06T18:46:38.792Z,3.00
2023-05-06T18:49:06.638Z,1.00
2023-05-06T18:51:33.563Z,3.10
2023-05-06T18:54:00.501Z,2.90
2023-05-06T18:56:27.318Z,1.60
2023-05-06T18:58:54.187Z,3.40
2023-05-06T19:01:21.435Z,1.60
2023-05-06T19:03:48.412Z,6.90
2023-05-06T19:06:15.321Z,1.50
2023-05-06T19:08:42.327Z,2.00
2023-05-06T19:11:16.158Z,2.50
2023-05-06T19:13:47.692Z,10.70
2023-05-06T19:16:14.640Z,4.30
2023-05-06T19:18:41.862Z,3.30
2023-05-06T19:21:12.731Z,2.20
2023-05-06T19:23:39.971Z,2.20
2023-05-06T19:26:07.192Z,4.20
2023-05-06T19:28:34.506Z,1.90
2023-05-06T19:31:01.729Z,1.90
2023-05-06T19:33:28.759Z,3.10
2023-05-06T19:35:55.532Z,4.50
2023-05-06T19:38:29.559Z,6.50
2023-05-06T19:40:58.021Z,1.20
2023-05-06T19:43:28.463Z,2.20
2023-05-06T19:45:58.190Z,4.30
2023-05-06T19:48:25.878Z,4.40
2023-05-06T19:50:59.259Z,2.50
2023-05-06T19:53:26.174Z,4.30
2023-05-06T19:55:54.031Z,1.30
2023-05-06T19:58:20.871Z,2.70
2023-05-06T20:00:47.733Z,3.90
2023-05-06T20:03:14.660Z,3.20
2023-05-06T20:05:44.936Z,1.10
2023-05-06T20:08:11.885Z,5.50
2023-05-06T20:10:38.944Z,3.80
2023-05-06T20:13:07.104Z,0.90
2023-05-06T20:15:35.492Z,1.90
2023-05-06T20:18:03.747Z,1.50
2023-05-06T20:20:36.117Z,1.90
2023-05-06T20:23:03.120Z,2.40
2023-05-06T20:25:30.170Z,1.80
2023-05-06T20:27:58.260Z,2.90
2023-05-06T20:30:25.869Z,4.10
2023-05-06T20:32:53.017Z,1.00
2023-05-06T20:35:19.803Z,3.30
2023-05-06T20:37:46.939Z,1.60
2023-05-06T20:40:14.276Z,1.50
2023-05-06T20:42:41.165Z,3.80
2023-05-06T20:45:08.830Z,6.10
2023-05-06T20:47:36.656Z,4.70
2023-05-06T20:50:03.598Z,1.20
2023-05-06T20:52:30.351Z,0.70
2023-05-06T20:54:58.150Z,1.50
2023-05-06T20:57:25.528Z,2.20
2023-05-06T20:59:52.894Z,1.50
2023-05-06T21:02:20.415Z,2.10
2023-05-06T21:04:47.310Z,2.60
2023-05-06T21:07:14.180Z,2.00
2023-05-06T21:09:40.964Z,2.00
2023-05-06T21:12:07.666Z,1.60
2023-05-06T21:14:34.385Z,1.80
2023-05-06T21:17:01.277Z,1.90
2023-05-06T21:19:28.112Z,4.00
2023-05-06T21:21:54.892Z,1.20
2023-05-06T21:24:21.798Z,1.00
2023-05-06T21:26:48.646Z,4.30
2023-05-06T21:29:15.412Z,1.50
2023-05-06T21:31:42.105Z,2.30
2023-05-06T21:34:10.805Z,2.60
2023-05-06T21:36:37.595Z,2.80
2023-05-06T21:39:10.184Z,2.20
2023-05-06T21:41:36.969Z,2.00
2023-05-06T21:44:04.251Z,1.10
2023-05-06T21:46:31.686Z,1.30
2023-05-06T21:48:58.838Z,1.10
2023-05-06T21:51:30.346Z,1.90
2023-05-06T21:53:57.110Z,2.50
2023-05-06T21:56:24.315Z,2.00
2023-05-06T21:58:52.001Z,1.70
2023-05-06T22:01:19.096Z,2.60
2023-05-06T22:03:46.354Z,3.70
2023-05-06T22:06:13.195Z,1.40
2023-05-06T22:08:40.902Z,2.60
2023-05-06T22:11:07.737Z,2.90
2023-05-06T22:13:34.665Z,2.50
2023-05-06T22:16:01.414Z,2.20
2023-05-06T22:18:30.055Z,1.70
2023-05-06T22:20:57.809Z,2.80
2023-05-06T22:23:25.320Z,3.90
2023-05-06T22:25:52.188Z,3.00
2023-05-06T22:28:19.537Z,2.20
2023-05-06T22:30:46.467Z,5.50
2023-05-06T22:33:13.224Z,8.90
2023-05-06T22:35:40.021Z,2.00
2023-05-06T22:38:06.725Z,1.60
2023-05-06T22:40:33.487Z,1.50
2023-05-06T22:43:00.309Z,2.60
2023-05-06T22:45:27.216Z,2.60
2023-05-06T22:47:54.149Z,3.10
2023-05-06T22:50:20.855Z,3.00
2023-05-06T22:52:47.629Z,3.00
2023-05-06T22:55:15.106Z,1.70
2023-05-06T22:57:41.935Z,4.60
2023-05-06T23:00:12.448Z,2.70
2023-05-06T23:02:39.873Z,2.80
2023-05-06T23:05:06.814Z,3.80
2023-05-06T23:07:33.516Z,1.70
2023-05-06T23:10:00.216Z,1.90
2023-05-06T23:12:28.015Z,2.80
2023-05-06T23:14:54.728Z,2.60
2023-05-06T23:17:21.450Z,3.40
2023-05-06T23:19:48.183Z,2.40
2023-05-06T23:22:14.958Z,5.10
2023-05-06T23:24:42.281Z,4.50
2023-05-06T23:27:09.011Z,4.60
2023-05-06T23:29:35.781Z,2.10
2023-05-06T23:32:02.890Z,2.40
2023-05-06T23:34:29.794Z,1.50
2023-05-06T23:36:56.678Z,3.00
2023-05-06T23:39:23.543Z,1.50
2023-05-06T23:41:50.384Z,1.90
2023-05-06T23:44:17.132Z,4.40
2023-05-06T23:46:43.929Z,2.70
2023-05-06T23:49:10.811Z,2.90
2023-05-06T23:51:37.468Z,6.70
2023-05-06T23:54:04.298Z,2.00
2023-05-06T23:56:31.095Z,2.90
2023-05-06T23:58:58.035Z,1.70
